Time;durP1;ratioP1;P1;durP2;ratioP2;P2;SDS_P1;SDS_P2;PMS_P1;PMS_P2;Temp;Humidity;BMP_temperature;BMP_pressure;BME280_temperature;BME280_humidity;BME280_pressure;Samples;Min_cycle;Max_cycle;Signal;HPM_P1;HPM_P2
2023/07/21 00:02:24;;;;;;;3.38;1.60;;;;;;;;;;4977002;28;20217;-60
2023/07/21 00:04:49;;;;;;;3.80;1.55;;;;;;;;;;4973365;28;20334;-60
2023/07/21 00:07:15;;;;;;;3.30;1.48;;;;;;;;;;4968916;28;20760;-60
2023/07/21 00:09:40;;;;;;;7.65;1.70;;;;;;;;;;4968445;28;20743;-60
2023/07/21 00:12:05;;;;;;;2.42;1.50;;;;;;;;;;4973281;28;20280;-60
2023/07/21 00:14:31;;;;;;;5.45;1.75;;;;;;;;;;4975681;28;20221;-60
2023/07/21 00:16:56;;;;;;;3.25;1.73;;;;;;;;;;4978195;28;20746;-60
2023/07/21 00:19:22;;;;;;;5.15;1.85;;;;;;;;;;4977991;28;20256;-60
2023/07/21 00:21:47;;;;;;;6.05;1.73;;;;;;;;;;4961301;28;21331;-60
2023/07/21 00:24:13;;;;;;;2.80;1.70;;;;;;;;;;4980850;28;20225;-60
2023/07/21 00:26:38;;;;;;;6.53;2.00;;;;;;;;;;4980863;28;20239;-60
2023/07/21 00:29:04;;;;;;;4.40;1.98;;;;;;;;;;4972039;28;20462;-60
2023/07/21 00:31:29;;;;;;;3.85;2.00;;;;;;;;;;4972308;28;20220;-60
2023/07/21 00:33:54;;;;;;;7.13;2.13;;;;;;;;;;4973944;28;20291;-60
2023/07/21 00:36:20;;;;;;;7.35;1.83;;;;;;;;;;4980234;28;20265;-60
2023/07/21 00:38:47;;;;;;;6.20;1.80;;;;;;;;;;4978765;28;20216;-60
2023/07/21 00:41:13;;;;;;;3.33;1.50;;;;;;;;;;4981062;28;20834;-60
2023/07/21 00:43:38;;;;;;;3.65;1.70;;;;;;;;;;4980498;28;20217;-60
2023/07/21 00:46:03;;;;;;;5.30;1.80;;;;;;;;;;4979083;28;20263;-60
2023/07/21 00:48:29;;;;;;;5.43;1.80;;;;;;;;;;4980435;28;20216;-60
2023/07/21 00:50:54;;;;;;;4.95;1.90;;;;;;;;;;4974680;28;20229;-60
2023/07/21 00:53:19;;;;;;;3.53;1.58;;;;;;;;;;4971797;28;20925;-60
2023/07/21 00:55:47;;;;;;;3.03;1.75;;;;;;;;;;4971534;28;20209;-60
2023/07/21 00:58:13;;;;;;;4.47;1.67;;;;;;;;;;4978271;28;20221;-60
2023/07/21 01:00:38;;;;;;;3.47;1.80;;;;;;;;;;4981239;28;20229;-60
2023/07/21 01:03:04;;;;;;;3.50;1.60;;;;;;;;;;4978146;28;20203;-60
2023/07/21 01:05:32;;;;;;;3.00;1.70;;;;;;;;;;4980097;28;20213;-60
2023/07/21 01:07:57;;;;;;;3.72;1.65;;;;;;;;;;4963734;28;20217;-60
2023/07/21 01:10:23;;;;;;;4.25;1.70;;;;;;;;;;4961576;28;20229;-60
2023/07/21 01:12:48;;;;;;;4.43;1.63;;;;;;;;;;4975105;28;20291;-60
2023/07/21 01:15:13;;;;;;;4.00;1.90;;;;;;;;;;4972303;28;20645;-60
2023/07/21 01:17:39;;;;;;;2.88;1.70;;;;;;;;;;4971977;28;20324;-60
2023/07/21 01:20:04;;;;;;;4.82;2.00;;;;;;;;;;4956463;28;20213;-60
2023/07/21 01:22:32;;;;;;;2.88;1.60;;;;;;;;;;4980689;28;20224;-60
2023/07/21 01:25:02;;;;;;;2.83;1.67;;;;;;;;;;4962176;28;20312;-60
2023/07/21 01:27:27;;;;;;;2.90;1.70;;;;;;;;;;4961072;28;20255;-60
2023/07/21 01:29:53;;;;;;;5.63;1.80;;;;;;;;;;4962400;28;20304;-60
2023/07/21 01:32:19;;;;;;;3.35;1.60;;;;;;;;;;4978310;28;20324;-60
2023/07/21 01:34:45;;;;;;;5.20;1.90;;;;;;;;;;4959435;28;20502;-60
2023/07/21 01:37:10;;;;;;;4.03;2.00;;;;;;;;;;4953561;28;20209;-60
2023/07/21 01:39:35;;;;;;;4.35;1.60;;;;;;;;;;4954859;28;20209;-60
2023/07/21 01:42:01;;;;;;;4.95;1.77;;;;;;;;;;4973733;28;20224;-60
2023/07/21 01:44:26;;;;;;;4.75;1.85;;;;;;;;;;4987310;28;20240;-60
2023/07/21 01:46:53;;;;;;;4.05;1.70;;;;;;;;;;4989100;28;20245;-60
2023/07/21 01:49:18;;;;;;;3.55;1.70;;;;;;;;;;4989188;28;20300;-60
2023/07/21 01:51:43;;;;;;;3.97;1.75;;;;;;;;;;4988179;28;20304;-60
2023/07/21 01:54:11;;;;;;;5.30;2.00;;;;;;;;;;4970244;28;20260;-60
2023/07/21 01:56:45;;;;;;;5.13;2.00;;;;;;;;;;4989727;28;20231;-60
2023/07/21 01:59:10;;;;;;;2.92;1.55;;;;;;;;;;4968305;28;20210;-60
2023/07/21 02:01:36;;;;;;;4.07;2.00;;;;;;;;;;4985712;28;20213;-60
2023/07/21 02:04:02;;;;;;;3.90;1.80;;;;;;;;;;4988837;28;21932;-60
2023/07/21 02:06:28;;;;;;;3.33;1.90;;;;;;;;;;4970668;28;20300;-60
2023/07/21 02:08:53;;;;;;;3.47;1.98;;;;;;;;;;4986956;28;20296;-60
2023/07/21 02:11:20;;;;;;;4.30;1.88;;;;;;;;;;4987762;28;20217;-60
2023/07/21 02:13:45;;;;;;;4.32;1.70;;;;;;;;;;4989601;28;20269;-60
2023/07/21 02:16:11;;;;;;;2.60;1.80;;;;;;;;;;4987374;28;20626;-60
2023/07/21 02:18:37;;;;;;;3.47;1.55;;;;;;;;;;4987641;28;20210;-60
2023/07/21 02:21:03;;;;;;;4.57;1.77;;;;;;;;;;4987618;28;20229;-60
2023/07/21 02:23:29;;;;;;;6.18;2.20;;;;;;;;;;4989353;28;20223;-60
2023/07/21 02:25:54;;;;;;;3.70;2.00;;;;;;;;;;4986952;28;20214;-60
2023/07/21 02:28:20;;;;;;;5.60;1.80;;;;;;;;;;4988038;28;20319;-60
2023/07/21 02:30:45;;;;;;;4.05;2.10;;;;;;;;;;4989455;28;20665;-60
2023/07/21 02:33:11;;;;;;;4.78;2.00;;;;;;;;;;4986604;28;20637;-60
2023/07/21 02:35:36;;;;;;;3.20;1.80;;;;;;;;;;4987065;28;20311;-60
2023/07/21 02:38:03;;;;;;;7.07;1.90;;;;;;;;;;4988625;28;20205;-60
2023/07/21 02:40:30;;;;;;;4.13;2.10;;;;;;;;;;4982491;28;20296;-60
2023/07/21 02:42:56;;;;;;;4.57;2.00;;;;;;;;;;4972746;28;20209;-60
2023/07/21 02:45:22;;;;;;;5.95;2.10;;;;;;;;;;4978501;28;20716;-60
2023/07/21 02:47:47;;;;;;;3.03;1.98;;;;;;;;;;4978923;28;20229;-60
2023/07/21 02:50:12;;;;;;;4.22;1.98;;;;;;;;;;4975961;28;20220;-60
2023/07/21 02:52:38;;;;;;;3.38;1.83;;;;;;;;;;4960741;28;20231;-60
2023/07/21 02:55:05;;;;;;;4.38;2.10;;;;;;;;;;4961328;28;20853;-60
2023/07/21 02:57:32;;;;;;;3.83;2.00;;;;;;;;;;4975390;28;20255;-60
2023/07/21 02:59:57;;;;;;;3.92;1.90;;;;;;;;;;4973897;28;20213;-60
2023/07/21 03:02:22;;;;;;;4.05;2.00;;;;;;;;;;4969737;28;20227;-60
2023/07/21 03:04:48;;;;;;;3.63;1.85;;;;;;;;;;4972686;28;20212;-60
2023/07/21 03:07:14;;;;;;;3.45;2.05;;;;;;;;;;4977287;28;20231;-60
2023/07/21 03:09:39;;;;;;;4.18;1.88;;;;;;;;;;4977272;28;20232;-60
2023/07/21 03:12:05;;;;;;;7.32;1.80;;;;;;;;;;4977282;28;20696;-60
2023/07/21 03:14:30;;;;;;;3.67;1.80;;;;;;;;;;4981603;28;20675;-60
2023/07/21 03:16:56;;;;;;;4.53;2.13;;;;;;;;;;4979531;28;20217;-60
2023/07/21 03:19:21;;;;;;;4.85;1.80;;;;;;;;;;4960248;28;20268;-60
2023/07/21 03:21:47;;;;;;;5.10;1.67;;;;;;;;;;4972163;28;20271;-60
2023/07/21 03:24:14;;;;;;;2.75;1.58;;;;;;;;;;4972818;28;20217;-60
2023/07/21 03:26:39;;;;;;;2.42;1.77;;;;;;;;;;4968568;28;20291;-60
2023/07/21 03:29:04;;;;;;;3.75;2.00;;;;;;;;;;4978258;28;20673;-60
2023/07/21 03:31:30;;;;;;;4.55;1.85;;;;;;;;;;4977890;28;20236;-60
2023/07/21 03:33:55;;;;;;;3.67;2.00;;;;;;;;;;4976351;28;20231;-60
2023/07/21 03:36:20;;;;;;;4.90;2.10;;;;;;;;;;4977370;28;20221;-59
2023/07/21 03:38:46;;;;;;;2.90;2.08;;;;;;;;;;4977705;28;20937;-60
2023/07/21 03:41:12;;;;;;;4.40;2.10;;;;;;;;;;4979974;28;20242;-60
2023/07/21 03:43:37;;;;;;;4.03;1.80;;;;;;;;;;4983399;28;20692;-60
2023/07/21 03:46:03;;;;;;;3.30;1.90;;;;;;;;;;4986983;28;20259;-60
2023/07/21 03:48:29;;;;;;;4.57;1.83;;;;;;;;;;4987861;28;20299;-60
2023/07/21 03:50:57;;;;;;;2.55;1.45;;;;;;;;;;4985698;28;20217;-60
2023/07/21 03:53:23;;;;;;;5.10;1.70;;;;;;;;;;4986871;28;20338;-60
2023/07/21 03:55:48;;;;;;;3.28;1.60;;;;;;;;;;4988925;28;20676;-60
2023/07/21 03:58:15;;;;;;;3.63;1.70;;;;;;;;;;4976209;28;20266;-60
2023/07/21 04:00:42;;;;;;;3.25;1.50;;;;;;;;;;4976538;28;20224;-60
2023/07/21 04:03:07;;;;;;;3.67;2.05;;;;;;;;;;4976864;28;20216;-60
2023/07/21 04:05:33;;;;;;;3.13;1.85;;;;;;;;;;4980635;28;20209;-60
2023/07/21 04:07:58;;;;;;;7.13;2.00;;;;;;;;;;4983985;28;20423;-60
2023/07/21 04:10:23;;;;;;;3.22;1.80;;;;;;;;;;4983703;28;20300;-60
2023/07/21 04:12:48;;;;;;;2.47;1.50;;;;;;;;;;4984725;28;20308;-59
2023/07/21 04:15:14;;;;;;;2.75;1.60;;;;;;;;;;4983104;28;20259;-59
2023/07/21 04:17:39;;;;;;;4.18;1.98;;;;;;;;;;4984619;28;20223;-60
2023/07/21 04:20:06;;;;;;;5.38;1.80;;;;;;;;;;4982565;28;20217;-59
2023/07/21 04:22:33;;;;;;;3.45;1.65;;;;;;;;;;4975811;28;20708;-59
2023/07/21 04:24:58;;;;;;;2.67;1.70;;;;;;;;;;4976316;28;20290;-59
2023/07/21 04:27:23;;;;;;;4.05;1.85;;;;;;;;;;4977070;28;20669;-59
2023/07/21 04:29:49;;;;;;;5.68;2.20;;;;;;;;;;4983651;28;20221;-59
2023/07/21 04:32:14;;;;;;;2.33;1.70;;;;;;;;;;4983197;28;20224;-60
2023/07/21 04:34:39;;;;;;;4.93;1.80;;;;;;;;;;4983517;28;20254;-60
2023/07/21 04:37:09;;;;;;;4.05;1.95;;;;;;;;;;4983547;28;20231;-60
2023/07/21 04:39:35;;;;;;;5.78;2.00;;;;;;;;;;4984119;28;20284;-60
2023/07/21 04:42:00;;;;;;;3.53;1.60;;;;;;;;;;4983193;28;20723;-59
2023/07/21 04:44:25;;;;;;;4.50;1.67;;;;;;;;;;4976866;28;20228;-60
2023/07/21 04:46:51;;;;;;;4.07;1.80;;;;;;;;;;4975990;28;20320;-60
2023/07/21 04:49:17;;;;;;;3.22;1.80;;;;;;;;;;4974761;28;20685;-60
2023/07/21 04:51:42;;;;;;;3.65;1.83;;;;;;;;;;4982436;28;20225;-60
2023/07/21 04:54:07;;;;;;;2.35;1.55;;;;;;;;;;4983022;28;20248;-60
2023/07/21 04:56:33;;;;;;;5.10;1.88;;;;;;;;;;4982941;28;20259;-60
2023/07/21 04:58:58;;;;;;;3.97;1.70;;;;;;;;;;4983844;28;20216;-60
2023/07/21 05:01:24;;;;;;;6.57;1.88;;;;;;;;;;4982763;28;20211;-60
2023/07/21 05:03:49;;;;;;;3.17;1.90;;;;;;;;;;4983046;28;20980;-60
2023/07/21 05:06:15;;;;;;;4.32;1.63;;;;;;;;;;4978797;28;20227;-60
2023/07/21 05:08:40;;;;;;;4.03;1.80;;;;;;;;;;4976032;28;20591;-60
2023/07/21 05:11:09;;;;;;;3.38;1.80;;;;;;;;;;4974036;28;20717;-60
2023/07/21 05:13:34;;;;;;;4.53;2.00;;;;;;;;;;4979482;28;20277;-60
2023/07/21 05:16:00;;;;;;;3.10;1.70;;;;;;;;;;4983666;28;20256;-60
2023/07/21 05:18:26;;;;;;;4.20;2.00;;;;;;;;;;4980780;28;20417;-60
2023/07/21 05:20:51;;;;;;;4.05;1.70;;;;;;;;;;4983034;28;20578;-60
2023/07/21 05:23:17;;;;;;;2.72;1.63;;;;;;;;;;4982438;28;20217;-60
2023/07/21 05:25:42;;;;;;;3.33;1.70;;;;;;;;;;4982279;28;20205;-61
2023/07/21 05:28:08;;;;;;;3.03;1.50;;;;;;;;;;4980544;28;20368;-61
2023/07/21 05:30:34;;;;;;;3.92;1.85;;;;;;;;;;4974885;28;20323;-61
2023/07/21 05:32:59;;;;;;;3.75;1.92;;;;;;;;;;4974124;28;20221;-60
2023/07/21 05:35:26;;;;;;;4.00;2.10;;;;;;;;;;4976502;28;20216;-60
2023/07/21 05:37:52;;;;;;;4.47;1.92;;;;;;;;;;4982333;28;20252;-60
2023/07/21 05:40:18;;;;;;;4.00;2.10;;;;;;;;;;4980491;28;20573;-60
2023/07/21 05:42:46;;;;;;;3.88;1.90;;;;;;;;;;4979470;28;20224;-61
2023/07/21 05:45:11;;;;;;;3.58;1.98;;;;;;;;;;4976861;28;20232;-60
2023/07/21 05:47:37;;;;;;;3.38;2.03;;;;;;;;;;4980353;28;20209;-60
2023/07/21 05:50:02;;;;;;;5.30;1.85;;;;;;;;;;4979609;28;20626;-60
2023/07/21 05:52:28;;;;;;;4.60;1.83;;;;;;;;;;4969790;28;20253;-61
2023/07/21 05:54:54;;;;;;;5.20;2.00;;;;;;;;;;4970640;28;20436;-60
2023/07/21 05:57:19;;;;;;;5.50;2.28;;;;;;;;;;4971786;28;20213;-61
2023/07/21 05:59:45;;;;;;;5.22;2.25;;;;;;;;;;4977087;28;20705;-61
2023/07/21 06:02:11;;;;;;;7.22;2.28;;;;;;;;;;4983825;28;20682;-60
2023/07/21 06:04:36;;;;;;;7.43;2.95;;;;;;;;;;4988480;28;20588;-61
2023/07/21 06:07:01;;;;;;;10.63;2.78;;;;;;;;;;4988061;28;20212;-61
2023/07/21 06:09:27;;;;;;;8.38;2.53;;;;;;;;;;4987034;28;20651;-61
2023/07/21 06:11:52;;;;;;;9.38;2.63;;;;;;;;;;4989233;28;20229;-61
2023/07/21 06:14:17;;;;;;;7.38;2.70;;;;;;;;;;4987993;28;20317;-60
2023/07/21 06:16:42;;;;;;;7.18;2.47;;;;;;;;;;4987328;28;20209;-61
2023/07/21 06:19:08;;;;;;;4.82;2.30;;;;;;;;;;4988196;28;20217;-61
2023/07/21 06:21:33;;;;;;;5.25;2.10;;;;;;;;;;4988812;28;20224;-61
2023/07/21 06:23:58;;;;;;;5.10;2.22;;;;;;;;;;4982522;28;20669;-61
2023/07/21 06:26:24;;;;;;;5.07;1.98;;;;;;;;;;4987300;28;20299;-61
2023/07/21 06:28:51;;;;;;;4.00;2.15;;;;;;;;;;4987650;28;20221;-60
2023/07/21 06:31:16;;;;;;;3.58;2.10;;;;;;;;;;4988186;28;20212;-61
2023/07/21 06:33:41;;;;;;;4.57;1.98;;;;;;;;;;4986611;28;20229;-61
2023/07/21 06:36:07;;;;;;;4.18;1.95;;;;;;;;;;4987619;28;20213;-61
2023/07/21 06:38:33;;;;;;;5.97;1.90;;;;;;;;;;4989024;28;20220;-61
2023/07/21 06:40:58;;;;;;;4.35;1.70;;;;;;;;;;4987030;28;20296;-60
2023/07/21 06:43:24;;;;;;;6.90;2.00;;;;;;;;;;4986528;28;20358;-61
2023/07/21 06:45:49;;;;;;;3.67;1.75;;;;;;;;;;4988737;28;20360;-61
2023/07/21 06:48:15;;;;;;;8.13;1.80;;;;;;;;;;4986668;28;20205;-60
2023/07/21 06:50:40;;;;;;;3.92;1.60;;;;;;;;;;4987315;28;20756;-61
2023/07/21 06:53:06;;;;;;;4.07;1.33;;;;;;;;;;4968498;28;20213;-61
2023/07/21 06:55:32;;;;;;;4.70;1.50;;;;;;;;;;4987254;28;20283;-61
2023/07/21 06:57:58;;;;;;;5.07;2.05;;;;;;;;;;4985629;28;20221;-61
2023/07/21 07:00:23;;;;;;;4.03;1.50;;;;;;;;;;4988312;28;20221;-60
2023/07/21 07:02:49;;;;;;;3.50;1.35;;;;;;;;;;4987117;28;20912;-61
2023/07/21 07:05:15;;;;;;;3.60;1.30;;;;;;;;;;4986195;28;20660;-61
2023/07/21 07:07:40;;;;;;;2.88;1.25;;;;;;;;;;4981744;28;20209;-61
2023/07/21 07:10:06;;;;;;;2.67;1.30;;;;;;;;;;4986735;28;20216;-61
2023/07/21 07:12:32;;;;;;;2.50;1.27;;;;;;;;;;4987025;28;20221;-61
2023/07/21 07:14:58;;;;;;;3.03;1.45;;;;;;;;;;4986417;28;20571;-60
2023/07/21 07:17:24;;;;;;;2.92;1.25;;;;;;;;;;4987366;28;20224;-61
2023/07/21 07:19:49;;;;;;;2.40;1.42;;;;;;;;;;4988138;28;20214;-61
2023/07/21 07:22:14;;;;;;;3.75;1.58;;;;;;;;;;4985225;28;20209;-61
2023/07/21 07:24:40;;;;;;;3.85;1.52;;;;;;;;;;4987268;28;20216;-61
2023/07/21 07:27:05;;;;;;;4.05;1.63;;;;;;;;;;4987837;28;20333;-60
2023/07/21 07:29:31;;;;;;;3.08;1.30;;;;;;;;;;4987330;28;20315;-60
2023/07/21 07:31:56;;;;;;;3.67;1.20;;;;;;;;;;4990584;28;20283;-60
2023/07/21 07:34:21;;;;;;;1.90;1.23;;;;;;;;;;4991848;28;20601;-59
2023/07/21 07:36:48;;;;;;;5.00;1.50;;;;;;;;;;4991154;28;20201;-60
2023/07/21 07:39:14;;;;;;;2.90;1.38;;;;;;;;;;4988641;28;20232;-60
2023/07/21 07:41:39;;;;;;;3.33;1.55;;;;;;;;;;4991914;28;20236;-59
2023/07/21 07:44:08;;;;;;;2.28;1.60;;;;;;;;;;4991682;28;20689;-60
2023/07/21 07:46:34;;;;;;;5.03;1.60;;;;;;;;;;4988244;28;20221;-60
2023/07/21 07:48:59;;;;;;;3.75;1.70;;;;;;;;;;4989883;28;20217;-60
2023/07/21 07:51:24;;;;;;;3.60;1.45;;;;;;;;;;4989923;28;20226;-60
2023/07/21 07:53:52;;;;;;;3.22;1.40;;;;;;;;;;4988816;28;20609;-60
2023/07/21 07:56:17;;;;;;;2.25;1.50;;;;;;;;;;4987342;28;20241;-60
2023/07/21 07:58:43;;;;;;;4.63;1.40;;;;;;;;;;4989552;28;20229;-60
2023/07/21 08:01:08;;;;;;;5.18;1.20;;;;;;;;;;4989905;28;20300;-60
2023/07/21 08:03:33;;;;;;;2.60;1.08;;;;;;;;;;4987365;28;20243;-60
2023/07/21 08:05:59;;;;;;;2.83;1.33;;;;;;;;;;4989501;28;20216;-60
2023/07/21 08:08:24;;;;;;;2.83;1.10;;;;;;;;;;4989830;28;20220;-60
2023/07/21 08:10:50;;;;;;;1.38;1.00;;;;;;;;;;4988835;28;20692;-60
2023/07/21 08:13:15;;;;;;;3.75;1.10;;;;;;;;;;4988085;28;20248;-60
2023/07/21 08:15:41;;;;;;;4.93;1.77;;;;;;;;;;4990041;28;20304;-60
2023/07/21 08:18:07;;;;;;;3.55;1.50;;;;;;;;;;4989384;28;20206;-60
2023/07/21 08:20:32;;;;;;;2.40;1.80;;;;;;;;;;4987511;28;20324;-60
2023/07/21 08:22:57;;;;;;;3.50;1.60;;;;;;;;;;4989991;28;20642;-60
2023/07/21 08:25:23;;;;;;;2.92;1.67;;;;;;;;;;4989728;28;20463;-60
2023/07/21 08:27:48;;;;;;;4.47;1.60;;;;;;;;;;4986400;28;20296;-60
2023/07/21 08:30:14;;;;;;;8.15;1.80;;;;;;;;;;4989382;28;20213;-60
2023/07/21 08:32:40;;;;;;;5.00;1.55;;;;;;;;;;4972539;28;20643;-60
2023/07/21 08:35:06;;;;;;;3.75;1.63;;;;;;;;;;4987199;28;20223;-60
2023/07/21 08:37:32;;;;;;;3.80;1.45;;;;;;;;;;4988966;28;20209;-61
2023/07/21 08:39:57;;;;;;;5.22;1.80;;;;;;;;;;4972430;28;20243;-60
2023/07/21 08:42:23;;;;;;;4.82;1.27;;;;;;;;;;4988080;28;20371;-60
2023/07/21 08:44:49;;;;;;;3.63;1.70;;;;;;;;;;4947495;28;1142275;-61
2023/07/21 08:47:14;;;;;;;4.57;1.70;;;;;;;;;;4990564;28;20217;-61
2023/07/21 08:49:40;;;;;;;3.65;1.58;;;;;;;;;;4990085;28;20591;-60
2023/07/21 08:52:06;;;;;;;2.45;1.30;;;;;;;;;;4970770;28;20209;-60
2023/07/21 08:54:31;;;;;;;4.18;1.50;;;;;;;;;;4990376;28;20236;-60
2023/07/21 08:56:56;;;;;;;5.25;1.50;;;;;;;;;;4989983;28;20213;-60
2023/07/21 08:59:22;;;;;;;2.40;1.45;;;;;;;;;;4989121;28;20217;-60
2023/07/21 09:01:47;;;;;;;3.58;1.35;;;;;;;;;;4989212;28;20217;-60
2023/07/21 09:04:18;;;;;;;2.75;1.50;;;;;;;;;;4988966;28;20209;-60
2023/07/21 09:06:48;;;;;;;3.53;1.60;;;;;;;;;;4990334;28;20244;-61
2023/07/21 09:09:16;;;;;;;4.05;1.40;;;;;;;;;;4987138;28;20787;-60
2023/07/21 09:11:41;;;;;;;3.50;1.20;;;;;;;;;;4989951;28;20614;-60
2023/07/21 09:14:07;;;;;;;2.00;1.20;;;;;;;;;;4989764;28;20264;-60
2023/07/21 09:16:32;;;;;;;2.55;1.30;;;;;;;;;;4988666;28;20279;-60
2023/07/21 09:18:58;;;;;;;3.50;1.10;;;;;;;;;;4989136;28;20209;-61
2023/07/21 09:21:23;;;;;;;3.20;1.17;;;;;;;;;;4989673;28;20213;-61
2023/07/21 09:23:49;;;;;;;3.10;1.40;;;;;;;;;;4968536;28;20277;-60
2023/07/21 09:26:21;;;;;;;2.08;1.40;;;;;;;;;;4986297;28;20256;-60
2023/07/21 09:28:47;;;;;;;1.90;1.10;;;;;;;;;;4989902;28;20232;-60
2023/07/21 09:31:13;;;;;;;3.50;1.30;;;;;;;;;;4988178;28;20303;-60
2023/07/21 09:33:39;;;;;;;4.05;1.40;;;;;;;;;;4988740;28;20233;-60
2023/07/21 09:36:05;;;;;;;1.83;1.40;;;;;;;;;;4988502;28;20685;-60
2023/07/21 09:38:30;;;;;;;4.50;1.50;;;;;;;;;;4989486;28;20313;-60
2023/07/21 09:40:59;;;;;;;4.18;1.33;;;;;;;;;;4969057;28;20305;-60
2023/07/21 09:43:24;;;;;;;3.35;1.08;;;;;;;;;;4985674;28;20312;-60
2023/07/21 09:45:50;;;;;;;4.18;1.38;;;;;;;;;;4989041;28;20375;-60
2023/07/21 09:48:16;;;;;;;3.28;1.35;;;;;;;;;;4972063;28;20213;-60
2023/07/21 09:50:41;;;;;;;3.92;1.70;;;;;;;;;;4987725;28;20359;-60
2023/07/21 09:53:07;;;;;;;3.00;1.27;;;;;;;;;;4969850;28;20228;-60
2023/07/21 09:55:38;;;;;;;2.28;1.10;;;;;;;;;;4972410;28;20700;-60
2023/07/21 09:58:04;;;;;;;3.55;1.30;;;;;;;;;;4988518;28;20645;-60
2023/07/21 10:00:31;;;;;;;2.20;1.40;;;;;;;;;;4969903;28;20591;-60
2023/07/21 10:02:56;;;;;;;1.92;1.52;;;;;;;;;;4989304;28;20272;-60
2023/07/21 10:05:23;;;;;;;5.10;1.30;;;;;;;;;;4988067;28;20681;-60
2023/07/21 10:07:49;;;;;;;2.70;1.30;;;;;;;;;;4987310;28;20213;-60
2023/07/21 10:10:14;;;;;;;2.33;1.20;;;;;;;;;;4971246;28;20244;-60
2023/07/21 10:12:41;;;;;;;2.40;1.48;;;;;;;;;;4988552;28;20213;-60
2023/07/21 10:15:14;;;;;;;3.67;1.40;;;;;;;;;;4987573;28;20216;-60
2023/07/21 10:17:43;;;;;;;2.45;1.30;;;;;;;;;;4987966;28;20263;-60
2023/07/21 10:20:11;;;;;;;4.93;1.40;;;;;;;;;;4970406;28;20217;-60
2023/07/21 10:22:37;;;;;;;3.58;1.55;;;;;;;;;;4989085;28;20643;-60
2023/07/21 10:25:04;;;;;;;5.75;1.83;;;;;;;;;;4986271;28;20238;-60
2023/07/21 10:27:29;;;;;;;3.47;1.60;;;;;;;;;;4988604;28;20313;-60
2023/07/21 10:29:56;;;;;;;3.58;1.50;;;;;;;;;;4988872;28;20311;-60
2023/07/21 10:32:21;;;;;;;1.80;1.20;;;;;;;;;;4965911;28;20222;-60
2023/07/21 10:34:46;;;;;;;4.88;1.52;;;;;;;;;;4981999;28;20233;-60
2023/07/21 10:37:12;;;;;;;2.83;1.67;;;;;;;;;;4988510;28;20205;-60
2023/07/21 10:39:42;;;;;;;4.88;1.70;;;;;;;;;;4968104;28;20222;-60
2023/07/21 10:42:07;;;;;;;5.75;1.88;;;;;;;;;;4984183;28;21199;-61
2023/07/21 10:44:33;;;;;;;3.78;1.73;;;;;;;;;;4988894;28;20343;-60
2023/07/21 10:46:59;;;;;;;2.53;1.65;;;;;;;;;;4988047;28;20704;-60
2023/07/21 10:49:24;;;;;;;2.63;1.83;;;;;;;;;;4986691;28;20225;-60
2023/07/21 10:51:49;;;;;;;1.98;1.40;;;;;;;;;;4992021;28;20206;-60
2023/07/21 10:54:15;;;;;;;4.13;1.10;;;;;;;;;;4987023;28;20221;-60
2023/07/21 10:56:41;;;;;;;3.67;1.63;;;;;;;;;;4971144;28;20708;-60
2023/07/21 10:59:07;;;;;;;2.03;1.10;;;;;;;;;;4987538;28;20212;-60
2023/07/21 11:01:32;;;;;;;2.85;1.20;;;;;;;;;;4986133;28;20217;-60
2023/07/21 11:03:58;;;;;;;3.03;1.52;;;;;;;;;;4987897;28;20213;-60
2023/07/21 11:06:24;;;;;;;3.53;1.58;;;;;;;;;;4987730;28;20209;-60
2023/07/21 11:08:49;;;;;;;2.78;1.65;;;;;;;;;;4967828;28;20209;-60
2023/07/21 11:11:15;;;;;;;2.60;1.25;;;;;;;;;;4988214;28;20224;-60
2023/07/21 11:13:40;;;;;;;2.63;1.20;;;;;;;;;;4988390;28;20696;-60
2023/07/21 11:16:05;;;;;;;3.03;1.40;;;;;;;;;;4985790;28;20259;-61
2023/07/21 11:18:31;;;;;;;2.92;1.35;;;;;;;;;;4987274;28;20221;-60
2023/07/21 11:20:56;;;;;;;2.65;1.27;;;;;;;;;;4987902;28;20213;-60
2023/07/21 11:23:22;;;;;;;2.83;1.30;;;;;;;;;;4986460;28;20304;-61
2023/07/21 11:25:58;;;;;;;2.95;1.45;;;;;;;;;;4969111;28;20233;-60
2023/07/21 11:28:24;;;;;;;2.42;1.50;;;;;;;;;;4987508;28;20208;-61
2023/07/21 11:30:49;;;;;;;4.10;1.73;;;;;;;;;;4987409;28;20256;-61
2023/07/21 11:33:14;;;;;;;3.75;1.50;;;;;;;;;;4985969;28;20228;-60
2023/07/21 11:35:45;;;;;;;2.88;1.77;;;;;;;;;;4987210;28;20220;-60
2023/07/21 11:38:10;;;;;;;2.42;1.63;;;;;;;;;;4969599;28;20213;-60
2023/07/21 11:40:36;;;;;;;4.15;1.30;;;;;;;;;;4990980;28;20711;-60
2023/07/21 11:43:04;;;;;;;2.50;1.55;;;;;;;;;;4986014;28;20213;-61
2023/07/21 11:45:41;;;;;;;4.18;1.42;;;;;;;;;;4982341;28;20655;-60
2023/07/21 11:48:12;;;;;;;4.38;1.02;;;;;;;;;;4982581;28;20320;-60
2023/07/21 11:50:38;;;;;;;2.35;1.15;;;;;;;;;;4988221;28;20640;-60
2023/07/21 11:53:04;;;;;;;2.67;1.40;;;;;;;;;;4987423;28;20253;-61
2023/07/21 11:55:30;;;;;;;3.15;1.13;;;;;;;;;;4986881;28;20232;-61
2023/07/21 11:57:55;;;;;;;2.72;1.23;;;;;;;;;;4985878;28;20297;-60
2023/07/21 12:00:24;;;;;;;5.75;1.50;;;;;;;;;;4987261;28;20232;-60
2023/07/21 12:02:50;;;;;;;2.92;1.35;;;;;;;;;;4987609;28;20304;-60
2023/07/21 12:05:15;;;;;;;2.67;1.40;;;;;;;;;;4967373;28;20308;-60
2023/07/21 12:07:42;;;;;;;3.47;1.30;;;;;;;;;;4988023;28;20267;-60
2023/07/21 12:10:08;;;;;;;2.90;1.10;;;;;;;;;;4987748;28;20234;-60
2023/07/21 12:12:33;;;;;;;2.25;1.55;;;;;;;;;;4985094;28;20562;-60
2023/07/21 12:14:59;;;;;;;2.40;1.20;;;;;;;;;;4987004;28;20888;-60
2023/07/21 12:17:24;;;;;;;4.03;1.30;;;;;;;;;;4990719;28;20259;-60
2023/07/21 12:19:49;;;;;;;2.13;1.27;;;;;;;;;;4987983;28;20228;-60
2023/07/21 12:22:15;;;;;;;2.00;1.50;;;;;;;;;;4994132;28;20213;-60
2023/07/21 12:24:40;;;;;;;4.30;1.40;;;;;;;;;;4988339;28;20209;-60
2023/07/21 12:27:05;;;;;;;3.28;1.13;;;;;;;;;;4990877;28;20632;-61
2023/07/21 12:29:31;;;;;;;1.80;1.17;;;;;;;;;;4989626;28;20241;-60
2023/07/21 12:31:56;;;;;;;3.15;1.25;;;;;;;;;;4989851;28;20247;-60
2023/07/21 12:34:22;;;;;;;4.10;1.60;;;;;;;;;;4989696;28;20626;-60
2023/07/21 12:36:47;;;;;;;3.50;1.02;;;;;;;;;;4991235;28;20324;-60
2023/07/21 12:39:12;;;;;;;3.15;1.10;;;;;;;;;;4988185;28;20711;-60
2023/07/21 12:41:38;;;;;;;3.00;1.58;;;;;;;;;;4990496;28;20981;-60
2023/07/21 12:44:03;;;;;;;2.22;1.20;;;;;;;;;;4990287;28;20221;-60
2023/07/21 12:46:29;;;;;;;5.47;1.40;;;;;;;;;;4989558;28;20276;-60
2023/07/21 12:48:54;;;;;;;3.42;1.30;;;;;;;;;;4989302;28;20210;-60
2023/07/21 12:51:20;;;;;;;2.92;1.17;;;;;;;;;;4990344;28;20217;-60
2023/07/21 12:53:45;;;;;;;2.92;1.38;;;;;;;;;;4990352;28;20233;-60
2023/07/21 12:56:10;;;;;;;2.75;1.05;;;;;;;;;;4987733;28;20221;-60
2023/07/21 12:58:36;;;;;;;3.22;1.40;;;;;;;;;;4990633;28;20320;-60
2023/07/21 13:01:01;;;;;;;3.88;1.58;;;;;;;;;;4988956;28;20213;-61
2023/07/21 13:03:26;;;;;;;4.65;2.45;;;;;;;;;;4988111;28;20220;-60
2023/07/21 13:05:52;;;;;;;4.65;2.28;;;;;;;;;;4990480;28;20217;-60
2023/07/21 13:08:17;;;;;;;7.80;2.30;;;;;;;;;;4989480;28;20707;-60
2023/07/21 13:10:42;;;;;;;3.13;1.42;;;;;;;;;;4989253;28;20642;-60
2023/07/21 13:13:08;;;;;;;6.00;1.30;;;;;;;;;;4988335;28;20264;-60
2023/07/21 13:15:33;;;;;;;2.67;1.40;;;;;;;;;;4989936;28;20233;-60
2023/07/21 13:17:58;;;;;;;3.83;1.20;;;;;;;;;;4989439;28;20307;-60
2023/07/21 13:20:24;;;;;;;5.85;1.38;;;;;;;;;;4987600;28;20225;-60
2023/07/21 13:22:49;;;;;;;9.10;1.90;;;;;;;;;;4989749;28;20213;-59
2023/07/21 13:25:15;;;;;;;6.65;2.00;;;;;;;;;;4990014;28;20360;-60
2023/07/21 13:27:40;;;;;;;6.38;2.30;;;;;;;;;;4986751;28;20300;-60
2023/07/21 13:30:05;;;;;;;7.57;2.33;;;;;;;;;;4988390;28;20224;-60
2023/07/21 13:32:32;;;;;;;7.35;2.15;;;;;;;;;;4977120;28;22893;-60
2023/07/21 13:34:57;;;;;;;5.90;2.30;;;;;;;;;;4974561;28;20213;-61
2023/07/21 13:37:23;;;;;;;5.93;2.05;;;;;;;;;;4974065;28;20236;-60
2023/07/21 13:39:48;;;;;;;7.90;2.50;;;;;;;;;;4978789;28;20243;-60
2023/07/21 13:42:14;;;;;;;5.38;2.25;;;;;;;;;;4981900;28;20217;-60
2023/07/21 13:44:39;;;;;;;5.53;2.00;;;;;;;;;;4979801;28;20225;-61
2023/07/21 13:47:05;;;;;;;4.85;2.00;;;;;;;;;;4983280;28;20205;-61
2023/07/21 13:49:30;;;;;;;5.07;2.20;;;;;;;;;;4983570;28;20229;-60
2023/07/21 13:51:55;;;;;;;6.03;2.53;;;;;;;;;;4981540;28;20244;-60
2023/07/21 13:54:21;;;;;;;4.78;2.50;;;;;;;;;;4981907;28;20232;-61
2023/07/21 13:56:46;;;;;;;5.40;2.60;;;;;;;;;;4949039;28;20872;-60
2023/07/21 13:59:12;;;;;;;5.32;2.92;;;;;;;;;;4974069;28;20257;-60
2023/07/21 14:01:37;;;;;;;7.07;3.40;;;;;;;;;;4976148;28;21024;-60
2023/07/21 14:04:02;;;;;;;7.30;3.38;;;;;;;;;;4968985;28;20212;-60
2023/07/21 14:06:28;;;;;;;5.70;3.10;;;;;;;;;;4971966;28;20313;-60
2023/07/21 14:08:53;;;;;;;4.97;3.88;;;;;;;;;;4981252;28;20217;-60
2023/07/21 14:11:18;;;;;;;6.15;3.38;;;;;;;;;;4955039;28;21068;-60
2023/07/21 14:13:44;;;;;;;8.27;3.70;;;;;;;;;;4982758;28;20799;-60
2023/07/21 14:16:09;;;;;;;6.32;4.13;;;;;;;;;;4981140;28;20212;-60
2023/07/21 14:18:35;;;;;;;8.73;4.85;;;;;;;;;;4978190;28;20213;-60
2023/07/21 14:21:00;;;;;;;6.65;4.00;;;;;;;;;;4975624;28;20221;-60
2023/07/21 14:23:26;;;;;;;5.72;4.50;;;;;;;;;;4975319;28;20213;-60
2023/07/21 14:25:51;;;;;;;5.75;4.45;;;;;;;;;;4976438;28;20213;-60
2023/07/21 14:28:16;;;;;;;6.85;4.78;;;;;;;;;;4982784;28;20213;-60
2023/07/21 14:30:42;;;;;;;7.68;4.78;;;;;;;;;;4982295;28;20582;-60
2023/07/21 14:33:07;;;;;;;6.43;5.00;;;;;;;;;;4980180;28;20631;-60
2023/07/21 14:35:33;;;;;;;6.85;5.00;;;;;;;;;;4965632;28;20720;-60